sensor_id;sensor_type;location;lat;lon;timestamp;P1;durP1;ratioP1;P2;durP2;ratioP2
20857;SDS011;10589;53.636;10.012;2023-03-04T04:45:55;10.67;;;1.83;;
20857;SDS011;10589;53.636;10.012;2023-03-04T04:48:23;13.40;;;1.90;;
20857;SDS011;10589;53.636;10.012;2023-03-04T04:50:52;10.97;;;2.20;;
20857;SDS011;10589;53.636;10.012;2023-03-04T04:53:19;14.80;;;2.33;;
20857;SDS011;10589;53.636;10.012;2023-03-04T04:55:45;12.00;;;2.07;;
20857;SDS011;10589;53.636;10.012;2023-03-04T04:58:10;15.43;;;1.73;;
20857;SDS011;10589;53.636;10.012;2023-03-04T05:00:36;12.83;;;1.93;;
20857;SDS011;10589;53.636;10.012;2023-03-04T05:03:01;13.03;;;2.13;;
20857;SDS011;10589;53.636;10.012;2023-03-04T05:05:27;13.17;;;2.07;;
20857;SDS011;10589;53.636;10.012;2023-03-04T05:07:53;10.50;;;1.97;;
20857;SDS011;10589;53.636;10.012;2023-03-04T05:10:18;8.50;;;1.53;;
20857;SDS011;10589;53.636;10.012;2023-03-04T05:12:44;14.37;;;1.97;;
20857;SDS011;10589;53.636;10.012;2023-03-04T05:15:09;13.57;;;1.63;;
20857;SDS011;10589;53.636;10.012;2023-03-04T05:17:35;13.80;;;2.00;;
20857;SDS011;10589;53.636;10.012;2023-03-04T05:20:01;8.03;;;1.53;;
20857;SDS011;10589;53.636;10.012;2023-03-04T05:22:27;11.37;;;1.97;;
20857;SDS011;10589;53.636;10.012;2023-03-04T05:24:53;12.97;;;2.87;;
20857;SDS011;10589;53.636;10.012;2023-03-04T05:27:19;15.30;;;2.20;;
20857;SDS011;10589;53.636;10.012;2023-03-04T05:29:44;10.13;;;1.70;;
20857;SDS011;10589;53.636;10.012;2023-03-04T05:32:10;10.43;;;1.73;;
20857;SDS011;10589;53.636;10.012;2023-03-04T05:34:36;10.53;;;2.47;;
20857;SDS011;10589;53.636;10.012;2023-03-04T05:37:02;17.67;;;2.40;;
20857;SDS011;10589;53.636;10.012;2023-03-04T05:39:27;14.70;;;2.00;;
20857;SDS011;10589;53.636;10.012;2023-03-04T05:41:53;14.53;;;2.83;;
20857;SDS011;10589;53.636;10.012;2023-03-04T05:44:18;19.33;;;2.73;;
20857;SDS011;10589;53.636;10.012;2023-03-04T05:46:44;15.33;;;2.00;;
20857;SDS011;10589;53.636;10.012;2023-03-04T05:49:09;11.87;;;2.60;;
20857;SDS011;10589;53.636;10.012;2023-03-04T05:51:35;7.27;;;1.90;;
20857;SDS011;10589;53.636;10.012;2023-03-04T05:54:01;13.73;;;2.90;;
20857;SDS011;10589;53.636;10.012;2023-03-04T05:56:26;12.90;;;1.90;;
20857;SDS011;10589;53.636;10.012;2023-03-04T05:58:55;13.00;;;2.17;;
20857;SDS011;10589;53.636;10.012;2023-03-04T06:01:23;13.10;;;2.37;;
20857;SDS011;10589;53.636;10.012;2023-03-04T06:03:48;16.30;;;3.13;;
20857;SDS011;10589;53.636;10.012;2023-03-04T06:06:14;15.30;;;2.40;;
20857;SDS011;10589;53.636;10.012;2023-03-04T06:08:39;16.57;;;2.87;;
20857;SDS011;10589;53.636;10.012;2023-03-04T06:11:05;16.07;;;2.27;;
20857;SDS011;10589;53.636;10.012;2023-03-04T06:13:31;12.70;;;2.53;;
20857;SDS011;10589;53.636;10.012;2023-03-04T06:15:58;20.67;;;3.67;;
20857;SDS011;10589;53.636;10.012;2023-03-04T06:18:25;16.97;;;3.20;;
20857;SDS011;10589;53.636;10.012;2023-03-04T06:20:55;16.23;;;2.97;;
20857;SDS011;10589;53.636;10.012;2023-03-04T06:23:22;18.30;;;3.50;;
20857;SDS011;10589;53.636;10.012;2023-03-04T06:25:55;15.50;;;2.90;;
20857;SDS011;10589;53.636;10.012;2023-03-04T06:28:23;18.80;;;3.50;;
20857;SDS011;10589;53.636;10.012;2023-03-04T06:30:52;16.93;;;2.87;;
20857;SDS011;10589;53.636;10.012;2023-03-04T06:33:19;19.67;;;3.37;;
20857;SDS011;10589;53.636;10.012;2023-03-04T06:35:45;21.30;;;3.97;;
20857;SDS011;10589;53.636;10.012;2023-03-04T06:38:10;19.23;;;3.13;;
20857;SDS011;10589;53.636;10.012;2023-03-04T06:40:36;19.87;;;3.07;;
20857;SDS011;10589;53.636;10.012;2023-03-04T06:43:02;20.00;;;2.93;;
20857;SDS011;10589;53.636;10.012;2023-03-04T06:45:27;16.53;;;3.07;;
20857;SDS011;10589;53.636;10.012;2023-03-04T06:47:53;17.47;;;2.70;;
20857;SDS011;10589;53.636;10.012;2023-03-04T06:50:18;13.77;;;2.80;;
20857;SDS011;10589;53.636;10.012;2023-03-04T06:52:44;17.23;;;3.13;;
20857;SDS011;10589;53.636;10.012;2023-03-04T06:55:10;17.60;;;3.00;;
20857;SDS011;10589;53.636;10.012;2023-03-04T06:57:37;15.53;;;3.13;;
20857;SDS011;10589;53.636;10.012;2023-03-04T07:00:03;20.27;;;3.03;;
20857;SDS011;10589;53.636;10.012;2023-03-04T07:02:29;11.87;;;2.70;;
20857;SDS011;10589;53.636;10.012;2023-03-04T07:04:55;17.40;;;2.40;;
20857;SDS011;10589;53.636;10.012;2023-03-04T07:07:20;13.87;;;2.77;;
20857;SDS011;10589;53.636;10.012;2023-03-04T07:09:46;18.23;;;2.53;;
20857;SDS011;10589;53.636;10.012;2023-03-04T07:12:12;15.03;;;2.77;;
20857;SDS011;10589;53.636;10.012;2023-03-04T07:14:37;17.10;;;2.23;;
20857;SDS011;10589;53.636;10.012;2023-03-04T07:17:03;10.10;;;1.80;;
20857;SDS011;10589;53.636;10.012;2023-03-04T07:19:29;11.30;;;2.13;;
20857;SDS011;10589;53.636;10.012;2023-03-04T07:21:54;16.50;;;2.10;;
20857;SDS011;10589;53.636;10.012;2023-03-04T07:24:20;11.83;;;1.83;;
20857;SDS011;10589;53.636;10.012;2023-03-04T07:26:45;14.20;;;1.80;;
20857;SDS011;10589;53.636;10.012;2023-03-04T07:29:11;11.80;;;2.73;;
20857;SDS011;10589;53.636;10.012;2023-03-04T07:31:37;8.47;;;1.80;;
20857;SDS011;10589;53.636;10.012;2023-03-04T07:34:05;12.27;;;1.93;;
20857;SDS011;10589;53.636;10.012;2023-03-04T07:36:34;14.83;;;2.30;;
20857;SDS011;10589;53.636;10.012;2023-03-04T07:39:00;16.50;;;2.77;;
20857;SDS011;10589;53.636;10.012;2023-03-04T07:41:27;16.13;;;2.77;;
20857;SDS011;10589;53.636;10.012;2023-03-04T07:43:57;16.40;;;2.57;;
20857;SDS011;10589;53.636;10.012;2023-03-04T07:46:23;13.90;;;2.93;;
20857;SDS011;10589;53.636;10.012;2023-03-04T07:48:49;16.13;;;2.60;;
20857;SDS011;10589;53.636;10.012;2023-03-04T07:51:15;16.07;;;3.10;;
20857;SDS011;10589;53.636;10.012;2023-03-04T07:53:44;15.93;;;3.20;;
20857;SDS011;10589;53.636;10.012;2023-03-04T07:56:12;14.33;;;3.10;;
20857;SDS011;10589;53.636;10.012;2023-03-04T07:58:40;15.70;;;3.03;;
20857;SDS011;10589;53.636;10.012;2023-03-04T08:01:13;20.40;;;3.40;;
20857;SDS011;10589;53.636;10.012;2023-03-04T08:03:40;20.67;;;3.83;;
20857;SDS011;10589;53.636;10.012;2023-03-04T08:06:07;22.10;;;3.73;;
20857;SDS011;10589;53.636;10.012;2023-03-04T08:08:35;20.60;;;4.00;;
20857;SDS011;10589;53.636;10.012;2023-03-04T08:11:08;16.53;;;3.03;;
20857;SDS011;10589;53.636;10.012;2023-03-04T08:13:37;23.80;;;3.63;;
20857;SDS011;10589;53.636;10.012;2023-03-04T08:16:04;13.33;;;3.10;;
20857;SDS011;10589;53.636;10.012;2023-03-04T08:18:30;23.07;;;3.70;;
20857;SDS011;10589;53.636;10.012;2023-03-04T08:20:56;24.03;;;3.40;;
20857;SDS011;10589;53.636;10.012;2023-03-04T08:23:22;20.83;;;3.37;;
20857;SDS011;10589;53.636;10.012;2023-03-04T08:25:48;20.53;;;3.73;;
20857;SDS011;10589;53.636;10.012;2023-03-04T08:28:14;22.70;;;3.33;;
20857;SDS011;10589;53.636;10.012;2023-03-04T08:30:41;20.23;;;3.63;;
20857;SDS011;10589;53.636;10.012;2023-03-04T08:33:07;21.63;;;3.80;;
20857;SDS011;10589;53.636;10.012;2023-03-04T08:35:37;15.63;;;3.20;;
20857;SDS011;10589;53.636;10.012;2023-03-04T08:38:04;20.83;;;3.57;;
20857;SDS011;10589;53.636;10.012;2023-03-04T08:40:30;18.43;;;3.10;;
20857;SDS011;10589;53.636;10.012;2023-03-04T08:42:55;22.30;;;3.80;;
20857;SDS011;10589;53.636;10.012;2023-03-04T08:45:21;17.53;;;3.17;;
20857;SDS011;10589;53.636;10.012;2023-03-04T08:47:47;18.17;;;3.30;;
20857;SDS011;10589;53.636;10.012;2023-03-04T08:50:12;23.67;;;3.57;;
20857;SDS011;10589;53.636;10.012;2023-03-04T08:52:38;21.10;;;3.73;;
20857;SDS011;10589;53.636;10.012;2023-03-04T08:55:03;18.30;;;3.53;;
20857;SDS011;10589;53.636;10.012;2023-03-04T08:57:29;18.80;;;3.37;;
20857;SDS011;10589;53.636;10.012;2023-03-04T08:59:55;17.73;;;3.70;;
20857;SDS011;10589;53.636;10.012;2023-03-04T09:02:20;18.57;;;3.30;;
20857;SDS011;10589;53.636;10.012;2023-03-04T09:04:47;20.03;;;3.33;;
20857;SDS011;10589;53.636;10.012;2023-03-04T09:07:13;19.43;;;3.50;;
20857;SDS011;10589;53.636;10.012;2023-03-04T09:09:39;19.00;;;3.23;;
20857;SDS011;10589;53.636;10.012;2023-03-04T09:12:05;22.27;;;3.87;;
20857;SDS011;10589;53.636;10.012;2023-03-04T09:14:31;22.50;;;4.20;;
20857;SDS011;10589;53.636;10.012;2023-03-04T09:16:59;24.70;;;3.90;;
20857;SDS011;10589;53.636;10.012;2023-03-04T09:19:28;19.83;;;3.67;;
20857;SDS011;10589;53.636;10.012;2023-03-04T09:21:54;21.23;;;3.57;;
20857;SDS011;10589;53.636;10.012;2023-03-04T09:24:20;17.37;;;3.53;;
20857;SDS011;10589;53.636;10.012;2023-03-04T09:26:50;22.13;;;3.93;;
20857;SDS011;10589;53.636;10.012;2023-03-04T09:29:16;21.93;;;4.57;;
20857;SDS011;10589;53.636;10.012;2023-03-04T09:31:42;13.80;;;2.97;;
20857;SDS011;10589;53.636;10.012;2023-03-04T09:34:07;17.40;;;3.23;;
20857;SDS011;10589;53.636;10.012;2023-03-04T09:36:34;21.57;;;3.50;;
20857;SDS011;10589;53.636;10.012;2023-03-04T09:39:03;22.53;;;3.60;;
20857;SDS011;10589;53.636;10.012;2023-03-04T09:41:39;16.70;;;3.00;;
20857;SDS011;10589;53.636;10.012;2023-03-04T09:44:20;17.93;;;3.37;;
20857;SDS011;10589;53.636;10.012;2023-03-04T09:47:02;21.73;;;3.40;;
20857;SDS011;10589;53.636;10.012;2023-03-04T09:49:30;21.17;;;3.07;;
20857;SDS011;10589;53.636;10.012;2023-03-04T09:57:26;31.33;;;7.97;;
20857;SDS011;10589;53.636;10.012;2023-03-04T09:59:59;41.93;;;9.70;;
20857;SDS011;10589;53.636;10.012;2023-03-04T10:05:07;23.90;;;5.77;;
20857;SDS011;10589;53.636;10.012;2023-03-04T10:07:44;21.60;;;6.47;;
20857;SDS011;10589;53.636;10.012;2023-03-04T10:10:14;29.57;;;12.27;;
20857;SDS011;10589;53.636;10.012;2023-03-04T10:12:46;18.67;;;4.43;;
20857;SDS011;10589;53.636;10.012;2023-03-04T10:17:56;19.97;;;4.47;;
20857;SDS011;10589;53.636;10.012;2023-03-04T10:20:37;22.60;;;3.77;;
20857;SDS011;10589;53.636;10.012;2023-03-04T10:23:18;16.50;;;3.27;;
20857;SDS011;10589;53.636;10.012;2023-03-04T10:25:46;20.57;;;4.30;;
20857;SDS011;10589;53.636;10.012;2023-03-04T10:28:16;16.37;;;4.13;;
20857;SDS011;10589;53.636;10.012;2023-03-04T10:33:33;20.93;;;3.60;;
20857;SDS011;10589;53.636;10.012;2023-03-04T10:36:02;15.43;;;3.60;;
20857;SDS011;10589;53.636;10.012;2023-03-04T10:38:32;15.77;;;3.47;;
20857;SDS011;10589;53.636;10.012;2023-03-04T10:40:59;17.63;;;3.80;;
20857;SDS011;10589;53.636;10.012;2023-03-04T10:43:26;22.00;;;3.87;;
20857;SDS011;10589;53.636;10.012;2023-03-04T10:45:58;14.17;;;3.87;;
20857;SDS011;10589;53.636;10.012;2023-03-04T10:48:26;15.20;;;3.07;;
20857;SDS011;10589;53.636;10.012;2023-03-04T10:50:53;18.27;;;3.40;;
20857;SDS011;10589;53.636;10.012;2023-03-04T10:53:39;15.80;;;3.43;;
20857;SDS011;10589;53.636;10.012;2023-03-04T10:59:01;14.93;;;3.80;;
20857;SDS011;10589;53.636;10.012;2023-03-04T11:02:00;18.27;;;3.63;;
20857;SDS011;10589;53.636;10.012;2023-03-04T11:04:37;20.07;;;3.97;;
20857;SDS011;10589;53.636;10.012;2023-03-04T11:07:07;21.80;;;3.57;;
20857;SDS011;10589;53.636;10.012;2023-03-04T11:09:34;9.90;;;2.27;;
20857;SDS011;10589;53.636;10.012;2023-03-04T11:12:01;16.67;;;3.47;;
20857;SDS011;10589;53.636;10.012;2023-03-04T11:14:34;17.53;;;2.93;;
20857;SDS011;10589;53.636;10.012;2023-03-04T11:17:17;18.93;;;3.73;;
20857;SDS011;10589;53.636;10.012;2023-03-04T11:19:53;15.33;;;3.27;;
20857;SDS011;10589;53.636;10.012;2023-03-04T11:22:22;14.37;;;3.20;;
20857;SDS011;10589;53.636;10.012;2023-03-04T11:25:03;16.30;;;2.93;;
20857;SDS011;10589;53.636;10.012;2023-03-04T11:33:05;21.23;;;4.03;;
20857;SDS011;10589;53.636;10.012;2023-03-04T11:36:07;13.33;;;3.50;;
20857;SDS011;10589;53.636;10.012;2023-03-04T11:38:57;19.37;;;2.90;;
20857;SDS011;10589;53.636;10.012;2023-03-04T11:41:33;14.37;;;3.00;;
20857;SDS011;10589;53.636;10.012;2023-03-04T11:44:03;12.93;;;2.53;;
20857;SDS011;10589;53.636;10.012;2023-03-04T11:57:37;18.10;;;2.80;;
20857;SDS011;10589;53.636;10.012;2023-03-04T12:02:47;18.90;;;2.90;;
20857;SDS011;10589;53.636;10.012;2023-03-04T12:05:39;14.10;;;3.23;;
20857;SDS011;10589;53.636;10.012;2023-03-04T12:11:05;21.47;;;3.93;;
20857;SDS011;10589;53.636;10.012;2023-03-04T12:13:46;12.97;;;2.50;;
20857;SDS011;10589;53.636;10.012;2023-03-04T12:22:18;9.97;;;2.60;;
20857;SDS011;10589;53.636;10.012;2023-03-04T12:29:57;14.23;;;2.60;;
20857;SDS011;10589;53.636;10.012;2023-03-04T12:35:30;16.93;;;3.23;;
20857;SDS011;10589;53.636;10.012;2023-03-04T12:40:44;23.67;;;3.17;;
20857;SDS011;10589;53.636;10.012;2023-03-04T12:43:39;16.07;;;2.40;;
20857;SDS011;10589;53.636;10.012;2023-03-04T12:49:01;11.90;;;3.07;;
20857;SDS011;10589;53.636;10.012;2023-03-04T12:54:16;15.97;;;2.60;;
20857;SDS011;10589;53.636;10.012;2023-03-04T12:56:44;17.03;;;3.30;;
20857;SDS011;10589;53.636;10.012;2023-03-04T12:59:18;15.53;;;3.03;;
20857;SDS011;10589;53.636;10.012;2023-03-04T13:01:52;15.20;;;2.63;;
20857;SDS011;10589;53.636;10.012;2023-03-04T13:04:43;11.90;;;3.07;;
20857;SDS011;10589;53.636;10.012;2023-03-04T13:10:16;14.13;;;2.70;;
20857;SDS011;10589;53.636;10.012;2023-03-04T13:12:48;13.90;;;3.10;;
20857;SDS011;10589;53.636;10.012;2023-03-04T13:17:50;12.70;;;2.93;;
20857;SDS011;10589;53.636;10.012;2023-03-04T13:20:38;13.17;;;2.97;;
20857;SDS011;10589;53.636;10.012;2023-03-04T13:25:37;12.50;;;2.67;;
20857;SDS011;10589;53.636;10.012;2023-03-04T13:48:44;13.00;;;3.27;;
20857;SDS011;10589;53.636;10.012;2023-03-04T14:04:15;9.47;;;2.50;;
20857;SDS011;10589;53.636;10.012;2023-03-04T14:06:44;18.43;;;3.17;;
20857;SDS011;10589;53.636;10.012;2023-03-04T14:09:12;12.53;;;2.90;;
20857;SDS011;10589;53.636;10.012;2023-03-04T14:11:39;11.53;;;2.53;;
20857;SDS011;10589;53.636;10.012;2023-03-04T14:14:07;11.57;;;2.83;;
20857;SDS011;10589;53.636;10.012;2023-03-04T14:16:47;14.40;;;2.50;;
20857;SDS011;10589;53.636;10.012;2023-03-04T14:22:02;16.07;;;2.40;;
20857;SDS011;10589;53.636;10.012;2023-03-04T14:24:54;5.60;;;2.00;;
20857;SDS011;10589;53.636;10.012;2023-03-04T14:27:37;11.27;;;2.43;;
20857;SDS011;10589;53.636;10.012;2023-03-04T14:30:05;14.67;;;2.50;;
20857;SDS011;10589;53.636;10.012;2023-03-04T14:32:33;14.77;;;2.60;;
20857;SDS011;10589;53.636;10.012;2023-03-04T14:35:06;12.27;;;2.57;;
20857;SDS011;10589;53.636;10.012;2023-03-04T14:37:42;11.67;;;2.30;;
20857;SDS011;10589;53.636;10.012;2023-03-04T14:40:21;8.97;;;2.10;;
20857;SDS011;10589;53.636;10.012;2023-03-04T14:42:57;12.67;;;2.33;;
20857;SDS011;10589;53.636;10.012;2023-03-04T14:45:27;10.10;;;2.40;;
20857;SDS011;10589;53.636;10.012;2023-03-04T14:47:55;10.53;;;2.30;;
20857;SDS011;10589;53.636;10.012;2023-03-04T14:50:24;12.03;;;2.30;;
20857;SDS011;10589;53.636;10.012;2023-03-04T14:53:03;7.03;;;1.90;;
20857;SDS011;10589;53.636;10.012;2023-03-04T14:55:32;10.13;;;2.00;;
20857;SDS011;10589;53.636;10.012;2023-03-04T14:58:15;14.53;;;2.47;;
20857;SDS011;10589;53.636;10.012;2023-03-04T15:00:45;14.90;;;2.70;;
20857;SDS011;10589;53.636;10.012;2023-03-04T15:03:27;15.37;;;2.77;;
20857;SDS011;10589;53.636;10.012;2023-03-04T15:05:54;8.27;;;2.03;;
20857;SDS011;10589;53.636;10.012;2023-03-04T15:08:30;9.83;;;2.53;;
20857;SDS011;10589;53.636;10.012;2023-03-04T15:11:00;13.33;;;2.13;;
20857;SDS011;10589;53.636;10.012;2023-03-04T15:16:15;15.80;;;3.20;;
20857;SDS011;10589;53.636;10.012;2023-03-04T15:18:56;10.83;;;2.17;;
20857;SDS011;10589;53.636;10.012;2023-03-04T15:21:37;15.40;;;3.13;;
20857;SDS011;10589;53.636;10.012;2023-03-04T15:24:05;16.70;;;3.50;;
20857;SDS011;10589;53.636;10.012;2023-03-04T15:26:33;11.63;;;2.20;;
20857;SDS011;10589;53.636;10.012;2023-03-04T15:29:36;16.93;;;3.00;;
20857;SDS011;10589;53.636;10.012;2023-03-04T15:31:55;12.13;;;2.30;;
20857;SDS011;10589;53.636;10.012;2023-03-04T15:34:20;12.00;;;2.40;;
20857;SDS011;10589;53.636;10.012;2023-03-04T15:36:48;12.83;;;2.17;;
20857;SDS011;10589;53.636;10.012;2023-03-04T15:39:15;12.50;;;2.40;;
20857;SDS011;10589;53.636;10.012;2023-03-04T15:41:42;8.00;;;1.70;;
20857;SDS011;10589;53.636;10.012;2023-03-04T15:44:10;12.50;;;2.13;;
20857;SDS011;10589;53.636;10.012;2023-03-04T15:46:36;10.17;;;2.30;;
20857;SDS011;10589;53.636;10.012;2023-03-04T15:49:02;10.87;;;2.30;;
20857;SDS011;10589;53.636;10.012;2023-03-04T15:51:27;11.23;;;2.37;;
20857;SDS011;10589;53.636;10.012;2023-03-04T15:53:57;17.60;;;2.67;;
20857;SDS011;10589;53.636;10.012;2023-03-04T15:56:24;14.70;;;2.40;;
20857;SDS011;10589;53.636;10.012;2023-03-04T15:58:55;11.90;;;2.20;;
20857;SDS011;10589;53.636;10.012;2023-03-04T16:01:28;12.20;;;2.30;;
20857;SDS011;10589;53.636;10.012;2023-03-04T16:03:54;10.43;;;2.17;;
20857;SDS011;10589;53.636;10.012;2023-03-04T16:06:20;10.37;;;2.40;;
20857;SDS011;10589;53.636;10.012;2023-03-04T16:08:48;12.33;;;2.83;;
20857;SDS011;10589;53.636;10.012;2023-03-04T16:11:16;14.47;;;2.23;;
20857;SDS011;10589;53.636;10.012;2023-03-04T16:13:45;14.43;;;1.83;;
20857;SDS011;10589;53.636;10.012;2023-03-04T16:18:40;13.33;;;2.67;;
20857;SDS011;10589;53.636;10.012;2023-03-04T16:21:06;9.47;;;1.93;;
20857;SDS011;10589;53.636;10.012;2023-03-04T16:23:37;13.53;;;2.00;;
20857;SDS011;10589;53.636;10.012;2023-03-04T16:26:05;12.90;;;2.77;;
20857;SDS011;10589;53.636;10.012;2023-03-04T16:28:37;8.53;;;2.43;;
20857;SDS011;10589;53.636;10.012;2023-03-04T16:31:02;15.70;;;2.37;;
20857;SDS011;10589;53.636;10.012;2023-03-04T16:33:28;14.27;;;2.30;;
20857;SDS011;10589;53.636;10.012;2023-03-04T16:35:54;9.60;;;2.07;;
20857;SDS011;10589;53.636;10.012;2023-03-04T16:38:30;8.70;;;1.70;;
20857;SDS011;10589;53.636;10.012;2023-03-04T16:40:57;8.60;;;2.10;;
20857;SDS011;10589;53.636;10.012;2023-03-04T16:43:25;8.70;;;1.80;;
20857;SDS011;10589;53.636;10.012;2023-03-04T16:45:51;11.90;;;1.80;;
20857;SDS011;10589;53.636;10.012;2023-03-04T16:48:17;12.83;;;2.13;;
20857;SDS011;10589;53.636;10.012;2023-03-04T16:50:44;8.07;;;1.57;;
20857;SDS011;10589;53.636;10.012;2023-03-04T16:53:16;9.63;;;1.77;;
20857;SDS011;10589;53.636;10.012;2023-03-04T16:55:49;10.03;;;1.87;;
20857;SDS011;10589;53.636;10.012;2023-03-04T16:58:15;9.70;;;1.87;;
20857;SDS011;10589;53.636;10.012;2023-03-04T17:00:41;9.07;;;2.10;;
20857;SDS011;10589;53.636;10.012;2023-03-04T17:03:08;8.77;;;2.00;;
20857;SDS011;10589;53.636;10.012;2023-03-04T17:05:35;11.47;;;2.60;;
20857;SDS011;10589;53.636;10.012;2023-03-04T17:08:01;11.87;;;2.00;;
20857;SDS011;10589;53.636;10.012;2023-03-04T17:10:27;8.30;;;2.17;;
20857;SDS011;10589;53.636;10.012;2023-03-04T17:12:53;11.60;;;1.53;;
20857;SDS011;10589;53.636;10.012;2023-03-04T17:15:18;14.10;;;2.27;;
20857;SDS011;10589;53.636;10.012;2023-03-04T17:17:44;20.17;;;2.03;;
20857;SDS011;10589;53.636;10.012;2023-03-04T17:20:12;12.47;;;2.33;;
20857;SDS011;10589;53.636;10.012;2023-03-04T17:22:41;12.53;;;2.17;;
20857;SDS011;10589;53.636;10.012;2023-03-04T17:25:07;9.13;;;2.03;;
20857;SDS011;10589;53.636;10.012;2023-03-04T17:27:35;10.40;;;2.30;;
20857;SDS011;10589;53.636;10.012;2023-03-04T17:30:01;7.50;;;2.10;;
20857;SDS011;10589;53.636;10.012;2023-03-04T17:32:28;13.93;;;2.03;;
20857;SDS011;10589;53.636;10.012;2023-03-04T17:34:56;16.00;;;2.53;;
20857;SDS011;10589;53.636;10.012;2023-03-04T17:37:22;9.67;;;2.43;;
20857;SDS011;10589;53.636;10.012;2023-03-04T17:39:48;14.70;;;2.47;;
20857;SDS011;10589;53.636;10.012;2023-03-04T17:42:14;9.23;;;1.80;;
20857;SDS011;10589;53.636;10.012;2023-03-04T17:44:39;12.23;;;2.53;;
20857;SDS011;10589;53.636;10.012;2023-03-04T17:47:06;13.10;;;2.30;;
20857;SDS011;10589;53.636;10.012;2023-03-04T17:49:32;10.60;;;2.00;;
20857;SDS011;10589;53.636;10.012;2023-03-04T17:51:58;6.63;;;1.73;;
20857;SDS011;10589;53.636;10.012;2023-03-04T17:54:24;9.87;;;2.13;;
20857;SDS011;10589;53.636;10.012;2023-03-04T17:56:50;7.87;;;1.50;;
20857;SDS011;10589;53.636;10.012;2023-03-04T17:59:16;10.63;;;2.20;;
20857;SDS011;10589;53.636;10.012;2023-03-04T18:01:42;11.97;;;2.13;;
20857;SDS011;10589;53.636;10.012;2023-03-04T18:04:11;15.57;;;3.40;;
20857;SDS011;10589;53.636;10.012;2023-03-04T18:06:38;7.10;;;1.80;;
20857;SDS011;10589;53.636;10.012;2023-03-04T18:09:04;10.93;;;2.30;;
20857;SDS011;10589;53.636;10.012;2023-03-04T18:11:31;8.40;;;2.27;;
20857;SDS011;10589;53.636;10.012;2023-03-04T18:14:00;8.47;;;1.70;;
20857;SDS011;10589;53.636;10.012;2023-03-04T18:16:25;10.07;;;2.47;;
20857;SDS011;10589;53.636;10.012;2023-03-04T18:18:53;9.90;;;1.97;;
20857;SDS011;10589;53.636;10.012;2023-03-04T18:21:21;8.73;;;1.97;;
20857;SDS011;10589;53.636;10.012;2023-03-04T18:23:48;11.17;;;2.07;;
20857;SDS011;10589;53.636;10.012;2023-03-04T18:26:13;8.77;;;2.23;;
20857;SDS011;10589;53.636;10.012;2023-03-04T18:28:39;11.07;;;2.03;;
20857;SDS011;10589;53.636;10.012;2023-03-04T18:31:04;15.70;;;2.30;;
20857;SDS011;10589;53.636;10.012;2023-03-04T18:33:30;7.93;;;1.80;;
20857;SDS011;10589;53.636;10.012;2023-03-04T18:36:00;10.03;;;1.87;;
20857;SDS011;10589;53.636;10.012;2023-03-04T18:38:31;7.03;;;1.90;;
20857;SDS011;10589;53.636;10.012;2023-03-04T18:40:57;9.83;;;2.20;;
20857;SDS011;10589;53.636;10.012;2023-03-04T18:43:28;6.67;;;1.30;;
20857;SDS011;10589;53.636;10.012;2023-03-04T18:46:01;12.23;;;2.30;;
20857;SDS011;10589;53.636;10.012;2023-03-04T18:48:30;9.50;;;1.70;;
20857;SDS011;10589;53.636;10.012;2023-03-04T18:50:58;7.73;;;1.40;;
20857;SDS011;10589;53.636;10.012;2023-03-04T18:53:24;9.50;;;2.10;;
20857;SDS011;10589;53.636;10.012;2023-03-04T18:55:52;7.87;;;1.70;;
20857;SDS011;10589;53.636;10.012;2023-03-04T18:58:21;6.60;;;1.70;;
20857;SDS011;10589;53.636;10.012;2023-03-04T19:00:47;10.03;;;1.97;;
20857;SDS011;10589;53.636;10.012;2023-03-04T19:03:12;6.53;;;1.50;;
20857;SDS011;10589;53.636;10.012;2023-03-04T19:05:38;6.77;;;1.77;;
20857;SDS011;10589;53.636;10.012;2023-03-04T19:08:05;8.97;;;2.07;;
20857;SDS011;10589;53.636;10.012;2023-03-04T19:10:31;12.70;;;2.93;;
20857;SDS011;10589;53.636;10.012;2023-03-04T19:12:57;7.03;;;1.80;;
20857;SDS011;10589;53.636;10.012;2023-03-04T19:15:23;8.67;;;1.80;;
20857;SDS011;10589;53.636;10.012;2023-03-04T19:17:50;9.40;;;2.10;;
20857;SDS011;10589;53.636;10.012;2023-03-04T19:20:16;9.10;;;2.40;;
20857;SDS011;10589;53.636;10.012;2023-03-04T19:22:45;11.30;;;2.10;;
20857;SDS011;10589;53.636;10.012;2023-03-04T19:25:11;6.23;;;1.33;;
20857;SDS011;10589;53.636;10.012;2023-03-04T19:27:37;10.67;;;1.93;;
20857;SDS011;10589;53.636;10.012;2023-03-04T19:30:03;9.27;;;1.57;;
20857;SDS011;10589;53.636;10.012;2023-03-04T19:32:29;6.27;;;1.57;;
20857;SDS011;10589;53.636;10.012;2023-03-04T19:34:55;8.17;;;1.40;;
20857;SDS011;10589;53.636;10.012;2023-03-04T19:37:21;7.23;;;1.50;;
20857;SDS011;10589;53.636;10.012;2023-03-04T19:39:46;14.23;;;1.83;;
20857;SDS011;10589;53.636;10.012;2023-03-04T19:42:13;5.77;;;1.50;;
20857;SDS011;10589;53.636;10.012;2023-03-04T19:44:38;9.97;;;1.70;;
20857;SDS011;10589;53.636;10.012;2023-03-04T19:47:04;9.73;;;1.73;;
20857;SDS011;10589;53.636;10.012;2023-03-04T19:49:30;10.77;;;1.90;;
20857;SDS011;10589;53.636;10.012;2023-03-04T19:51:57;10.43;;;1.50;;
20857;SDS011;10589;53.636;10.012;2023-03-04T19:54:23;7.43;;;1.53;;
20857;SDS011;10589;53.636;10.012;2023-03-04T19:56:49;5.57;;;1.20;;
20857;SDS011;10589;53.636;10.012;2023-03-04T19:59:16;6.13;;;1.53;;
20857;SDS011;10589;53.636;10.012;2023-03-04T20:01:43;11.87;;;1.47;;
20857;SDS011;10589;53.636;10.012;2023-03-04T20:04:13;5.70;;;1.60;;
20857;SDS011;10589;53.636;10.012;2023-03-04T20:06:41;4.87;;;1.57;;
20857;SDS011;10589;53.636;10.012;2023-03-04T20:09:13;10.17;;;1.67;;
20857;SDS011;10589;53.636;10.012;2023-03-04T20:11:40;5.20;;;1.40;;
20857;SDS011;10589;53.636;10.012;2023-03-04T20:14:09;12.17;;;1.90;;
20857;SDS011;10589;53.636;10.012;2023-03-04T20:16:35;6.17;;;1.53;;
20857;SDS011;10589;53.636;10.012;2023-03-04T20:19:00;9.60;;;1.80;;
20857;SDS011;10589;53.636;10.012;2023-03-04T20:21:29;6.93;;;1.57;;
20857;SDS011;10589;53.636;10.012;2023-03-04T20:23:57;8.13;;;2.00;;
20857;SDS011;10589;53.636;10.012;2023-03-04T20:26:24;6.90;;;1.77;;
20857;SDS011;10589;53.636;10.012;2023-03-04T20:28:53;6.17;;;1.70;;
20857;SDS011;10589;53.636;10.012;2023-03-04T20:33:50;6.53;;;1.67;;
20857;SDS011;10589;53.636;10.012;2023-03-04T20:36:17;8.53;;;1.83;;
20857;SDS011;10589;53.636;10.012;2023-03-04T20:38:43;4.60;;;1.67;;
20857;SDS011;10589;53.636;10.012;2023-03-04T20:41:09;11.10;;;2.10;;
20857;SDS011;10589;53.636;10.012;2023-03-04T20:43:35;7.30;;;2.30;;
20857;SDS011;10589;53.636;10.012;2023-03-04T20:48:59;6.57;;;1.97;;
20857;SDS011;10589;53.636;10.012;2023-03-04T20:51:28;9.13;;;2.07;;
20857;SDS011;10589;53.636;10.012;2023-03-04T20:53:55;9.17;;;1.90;;
20857;SDS011;10589;53.636;10.012;2023-03-04T20:56:22;7.43;;;1.83;;
20857;SDS011;10589;53.636;10.012;2023-03-04T20:58:48;9.43;;;2.00;;
20857;SDS011;10589;53.636;10.012;2023-03-04T21:01:14;8.70;;;2.03;;
20857;SDS011;10589;53.636;10.012;2023-03-04T21:03:40;10.27;;;1.90;;
20857;SDS011;10589;53.636;10.012;2023-03-04T21:06:06;10.20;;;1.50;;
20857;SDS011;10589;53.636;10.012;2023-03-04T21:08:33;6.07;;;1.50;;
20857;SDS011;10589;53.636;10.012;2023-03-04T21:11:00;7.77;;;1.83;;
20857;SDS011;10589;53.636;10.012;2023-03-04T21:13:26;5.97;;;1.27;;